createdAt,value
2023-01-11T00:17:11.432Z,376
2023-01-11T00:37:11.440Z,388
2023-01-11T00:57:11.437Z,389
2023-01-11T01:17:11.560Z,384
2023-01-11T01:37:11.278Z,381
2023-01-11T01:57:11.454Z,386
2023-01-11T02:17:11.488Z,386
2023-01-11T02:37:11.536Z,382
2023-01-11T02:57:11.512Z,380
2023-01-11T03:17:10.989Z,384
2023-01-11T03:37:11.524Z,380
2023-01-11T04:37:11.026Z,388
2023-01-11T04:57:11.550Z,396
2023-01-11T05:17:11.068Z,398
2023-01-11T05:37:11.568Z,407
2023-01-11T05:57:11.562Z,422
2023-01-11T06:17:11.345Z,428
2023-01-11T06:37:11.552Z,444
2023-01-11T06:57:11.600Z,459
2023-01-11T07:17:11.536Z,471
2023-01-11T07:37:27.966Z,504
2023-01-11T07:57:11.562Z,538
2023-01-11T08:17:11.578Z,574
2023-01-11T08:37:11.083Z,591
2023-01-11T08:57:11.590Z,616
2023-01-11T09:17:11.582Z,629
2023-01-11T09:37:11.589Z,639
2023-01-11T09:57:11.387Z,638
2023-01-11T10:18:34.906Z,630
2023-01-11T10:37:11.120Z,636
2023-01-11T10:57:11.420Z,613
2023-01-11T11:17:11.657Z,620
2023-01-11T11:37:11.609Z,609
2023-01-11T11:57:11.609Z,616
2023-01-11T12:17:11.624Z,607
2023-01-11T12:37:11.647Z,601
2023-01-11T12:57:11.661Z,590
2023-01-11T13:17:11.657Z,585
2023-01-11T13:37:11.147Z,577
2023-01-11T13:57:11.665Z,562
2023-01-11T14:17:11.655Z,550
2023-01-11T14:37:11.677Z,559
2023-01-11T14:57:11.704Z,549
2023-01-11T15:17:11.185Z,542
2023-01-11T15:37:11.695Z,543
2023-01-11T15:57:11.513Z,545
2023-01-11T16:17:11.673Z,541
2023-01-11T16:37:11.688Z,541
2023-01-11T16:57:11.718Z,535
2023-01-11T17:17:11.862Z,524
2023-01-11T17:37:11.740Z,527
2023-01-11T17:57:11.753Z,529
2023-01-11T18:17:11.741Z,516
2023-01-11T18:37:11.538Z,508
2023-01-11T18:57:11.741Z,510
2023-01-11T19:17:11.767Z,513
2023-01-11T19:37:11.556Z,508
2023-01-11T19:57:11.797Z,506
2023-01-11T20:57:11.317Z,507
2023-01-11T21:17:11.850Z,499
2023-01-11T21:37:11.789Z,503
2023-01-11T21:57:11.785Z,498
2023-01-11T22:17:11.808Z,501
2023-01-11T22:37:11.849Z,501
2023-01-11T22:57:11.845Z,500
2023-01-11T23:17:11.840Z,496
2023-01-11T23:37:11.653Z,491
2023-01-11T23:57:11.848Z,501
